sensor_id;sensor_type;location;lat;lon;timestamp;P1;durP1;ratioP1;P2;durP2;ratioP2
39772;SDS011;25451;51.960;6.250;2022-12-29T00:01:54;5.30;;;1.67;;
39772;SDS011;25451;51.960;6.250;2022-12-29T00:04:20;4.03;;;1.90;;
39772;SDS011;25451;51.960;6.250;2022-12-29T00:06:45;2.80;;;1.70;;
39772;SDS011;25451;51.960;6.250;2022-12-29T00:09:11;3.53;;;1.80;;
39772;SDS011;25451;51.960;6.250;2022-12-29T00:11:37;4.13;;;1.60;;
39772;SDS011;25451;51.960;6.250;2022-12-29T00:14:03;3.70;;;1.75;;
39772;SDS011;25451;51.960;6.250;2022-12-29T00:16:54;2.93;;;1.53;;
39772;SDS011;25451;51.960;6.250;2022-12-29T00:19:20;3.10;;;1.60;;
39772;SDS011;25451;51.960;6.250;2022-12-29T00:22:05;2.95;;;1.58;;
39772;SDS011;25451;51.960;6.250;2022-12-29T00:24:49;4.18;;;1.60;;
39772;SDS011;25451;51.960;6.250;2022-12-29T00:27:26;3.55;;;1.48;;
39772;SDS011;25451;51.960;6.250;2022-12-29T00:30:12;3.08;;;1.55;;
39772;SDS011;25451;51.960;6.250;2022-12-29T00:32:57;2.65;;;1.60;;
39772;SDS011;25451;51.960;6.250;2022-12-29T00:35:52;2.92;;;1.70;;
39772;SDS011;25451;51.960;6.250;2022-12-29T00:38:24;3.28;;;1.70;;
39772;SDS011;25451;51.960;6.250;2022-12-29T00:41:08;2.78;;;1.70;;
39772;SDS011;25451;51.960;6.250;2022-12-29T00:43:52;3.17;;;1.77;;
39772;SDS011;25451;51.960;6.250;2022-12-29T00:46:35;2.90;;;1.60;;
39772;SDS011;25451;51.960;6.250;2022-12-29T00:49:02;2.58;;;1.50;;
39772;SDS011;25451;51.960;6.250;2022-12-29T00:51:47;2.67;;;1.52;;
39772;SDS011;25451;51.960;6.250;2022-12-29T00:54:12;2.28;;;1.42;;
39772;SDS011;25451;51.960;6.250;2022-12-29T00:56:38;3.72;;;1.40;;
39772;SDS011;25451;51.960;6.250;2022-12-29T00:59:06;2.63;;;1.60;;
39772;SDS011;25451;51.960;6.250;2022-12-29T01:01:33;2.95;;;1.40;;
39772;SDS011;25451;51.960;6.250;2022-12-29T01:04:00;2.45;;;1.33;;
39772;SDS011;25451;51.960;6.250;2022-12-29T01:06:25;1.92;;;1.00;;
39772;SDS011;25451;51.960;6.250;2022-12-29T01:08:51;1.80;;;1.10;;
39772;SDS011;25451;51.960;6.250;2022-12-29T01:11:39;2.50;;;1.00;;
39772;SDS011;25451;51.960;6.250;2022-12-29T01:14:05;2.03;;;0.93;;
39772;SDS011;25451;51.960;6.250;2022-12-29T01:16:31;1.20;;;0.70;;
39772;SDS011;25451;51.960;6.250;2022-12-29T01:18:56;2.60;;;0.70;;
39772;SDS011;25451;51.960;6.250;2022-12-29T01:21:22;1.25;;;0.60;;
39772;SDS011;25451;51.960;6.250;2022-12-29T01:23:47;1.33;;;0.60;;
39772;SDS011;25451;51.960;6.250;2022-12-29T01:26:14;3.40;;;0.80;;
39772;SDS011;25451;51.960;6.250;2022-12-29T01:28:41;0.85;;;0.60;;
39772;SDS011;25451;51.960;6.250;2022-12-29T01:31:07;1.67;;;0.60;;
39772;SDS011;25451;51.960;6.250;2022-12-29T01:33:36;1.10;;;0.50;;
39772;SDS011;25451;51.960;6.250;2022-12-29T01:36:02;1.73;;;0.60;;
39772;SDS011;25451;51.960;6.250;2022-12-29T01:38:29;2.55;;;0.60;;
39772;SDS011;25451;51.960;6.250;2022-12-29T01:40:54;0.80;;;0.60;;
39772;SDS011;25451;51.960;6.250;2022-12-29T01:43:20;1.67;;;0.80;;
39772;SDS011;25451;51.960;6.250;2022-12-29T01:45:47;2.43;;;0.70;;
39772;SDS011;25451;51.960;6.250;2022-12-29T01:48:15;1.60;;;0.80;;
39772;SDS011;25451;51.960;6.250;2022-12-29T01:50:44;1.10;;;0.80;;
39772;SDS011;25451;51.960;6.250;2022-12-29T01:53:22;1.60;;;1.10;;
39772;SDS011;25451;51.960;6.250;2022-12-29T01:55:54;1.98;;;1.13;;
39772;SDS011;25451;51.960;6.250;2022-12-29T01:58:24;1.75;;;1.00;;
39772;SDS011;25451;51.960;6.250;2022-12-29T02:00:54;2.40;;;1.10;;
39772;SDS011;25451;51.960;6.250;2022-12-29T02:03:20;2.70;;;1.30;;
39772;SDS011;25451;51.960;6.250;2022-12-29T02:05:52;2.72;;;1.25;;
39772;SDS011;25451;51.960;6.250;2022-12-29T02:08:23;2.45;;;1.30;;
39772;SDS011;25451;51.960;6.250;2022-12-29T02:10:51;3.30;;;1.40;;
39772;SDS011;25451;51.960;6.250;2022-12-29T02:13:18;3.55;;;1.30;;
39772;SDS011;25451;51.960;6.250;2022-12-29T02:18:18;2.35;;;1.25;;
39772;SDS011;25451;51.960;6.250;2022-12-29T02:21:03;2.08;;;1.10;;
39772;SDS011;25451;51.960;6.250;2022-12-29T02:24:01;4.20;;;1.38;;
39772;SDS011;25451;51.960;6.250;2022-12-29T02:26:58;2.40;;;1.20;;
39772;SDS011;25451;51.960;6.250;2022-12-29T02:32:37;1.90;;;1.00;;
39772;SDS011;25451;51.960;6.250;2022-12-29T02:35:08;2.88;;;1.20;;
39772;SDS011;25451;51.960;6.250;2022-12-29T02:43:23;3.53;;;1.08;;
39772;SDS011;25451;51.960;6.250;2022-12-29T02:46:10;1.83;;;0.90;;
39772;SDS011;25451;51.960;6.250;2022-12-29T02:49:06;4.05;;;0.90;;
39772;SDS011;25451;51.960;6.250;2022-12-29T02:51:50;1.60;;;0.80;;
39772;SDS011;25451;51.960;6.250;2022-12-29T02:54:20;2.65;;;1.00;;
39772;SDS011;25451;51.960;6.250;2022-12-29T02:59:44;2.30;;;0.80;;
39772;SDS011;25451;51.960;6.250;2022-12-29T03:10:33;2.30;;;0.80;;
39772;SDS011;25451;51.960;6.250;2022-12-29T03:16:12;2.38;;;0.88;;
39772;SDS011;25451;51.960;6.250;2022-12-29T03:21:31;4.30;;;0.82;;
39772;SDS011;25451;51.960;6.250;2022-12-29T03:24:20;2.15;;;0.73;;
39772;SDS011;25451;51.960;6.250;2022-12-29T03:26:51;2.35;;;0.70;;
39772;SDS011;25451;51.960;6.250;2022-12-29T03:29:19;3.25;;;0.85;;
39772;SDS011;25451;51.960;6.250;2022-12-29T03:31:45;3.10;;;0.80;;
39772;SDS011;25451;51.960;6.250;2022-12-29T03:34:14;4.25;;;1.20;;
39772;SDS011;25451;51.960;6.250;2022-12-29T03:36:44;2.05;;;0.70;;
39772;SDS011;25451;51.960;6.250;2022-12-29T03:39:15;1.80;;;0.80;;
39772;SDS011;25451;51.960;6.250;2022-12-29T03:41:43;1.73;;;0.70;;
39772;SDS011;25451;51.960;6.250;2022-12-29T03:44:10;1.90;;;0.68;;
39772;SDS011;25451;51.960;6.250;2022-12-29T03:46:37;2.55;;;0.80;;
39772;SDS011;25451;51.960;6.250;2022-12-29T03:49:02;2.72;;;0.68;;
39772;SDS011;25451;51.960;6.250;2022-12-29T03:51:28;3.30;;;0.83;;
39772;SDS011;25451;51.960;6.250;2022-12-29T03:53:53;2.50;;;0.80;;
39772;SDS011;25451;51.960;6.250;2022-12-29T03:56:18;2.57;;;0.70;;
39772;SDS011;25451;51.960;6.250;2022-12-29T03:58:43;3.87;;;0.80;;
39772;SDS011;25451;51.960;6.250;2022-12-29T04:01:09;3.80;;;0.90;;
39772;SDS011;25451;51.960;6.250;2022-12-29T04:03:34;3.43;;;0.90;;
39772;SDS011;25451;51.960;6.250;2022-12-29T04:05:59;3.13;;;0.80;;
39772;SDS011;25451;51.960;6.250;2022-12-29T04:08:25;2.70;;;0.80;;
39772;SDS011;25451;51.960;6.250;2022-12-29T04:10:50;2.70;;;0.80;;
39772;SDS011;25451;51.960;6.250;2022-12-29T04:13:16;2.85;;;0.90;;
39772;SDS011;25451;51.960;6.250;2022-12-29T04:15:42;1.30;;;0.70;;
39772;SDS011;25451;51.960;6.250;2022-12-29T04:18:08;1.83;;;0.70;;
39772;SDS011;25451;51.960;6.250;2022-12-29T04:20:33;2.27;;;0.77;;
39772;SDS011;25451;51.960;6.250;2022-12-29T04:23:17;3.28;;;0.80;;
39772;SDS011;25451;51.960;6.250;2022-12-29T04:25:44;1.77;;;0.70;;
39772;SDS011;25451;51.960;6.250;2022-12-29T04:28:11;3.35;;;0.80;;
39772;SDS011;25451;51.960;6.250;2022-12-29T04:30:36;3.60;;;1.10;;
39772;SDS011;25451;51.960;6.250;2022-12-29T04:33:01;1.50;;;0.70;;
39772;SDS011;25451;51.960;6.250;2022-12-29T04:35:27;2.95;;;0.70;;
39772;SDS011;25451;51.960;6.250;2022-12-29T04:37:52;1.60;;;0.80;;
39772;SDS011;25451;51.960;6.250;2022-12-29T04:40:17;2.43;;;0.80;;
39772;SDS011;25451;51.960;6.250;2022-12-29T04:42:42;1.23;;;0.70;;
39772;SDS011;25451;51.960;6.250;2022-12-29T04:45:08;1.73;;;0.80;;
39772;SDS011;25451;51.960;6.250;2022-12-29T04:47:34;2.35;;;0.80;;
39772;SDS011;25451;51.960;6.250;2022-12-29T04:49:59;4.63;;;0.80;;
39772;SDS011;25451;51.960;6.250;2022-12-29T04:52:24;1.40;;;0.70;;
39772;SDS011;25451;51.960;6.250;2022-12-29T04:54:49;3.13;;;0.80;;
39772;SDS011;25451;51.960;6.250;2022-12-29T04:57:15;3.57;;;0.80;;
39772;SDS011;25451;51.960;6.250;2022-12-29T04:59:40;4.27;;;0.70;;
39772;SDS011;25451;51.960;6.250;2022-12-29T05:02:05;2.13;;;0.80;;
39772;SDS011;25451;51.960;6.250;2022-12-29T05:04:31;2.13;;;0.70;;
39772;SDS011;25451;51.960;6.250;2022-12-29T05:06:56;1.53;;;0.67;;
39772;SDS011;25451;51.960;6.250;2022-12-29T05:09:21;4.63;;;1.20;;
39772;SDS011;25451;51.960;6.250;2022-12-29T05:11:47;2.37;;;0.80;;
39772;SDS011;25451;51.960;6.250;2022-12-29T05:14:12;3.93;;;0.80;;
39772;SDS011;25451;51.960;6.250;2022-12-29T05:16:37;1.87;;;0.73;;
39772;SDS011;25451;51.960;6.250;2022-12-29T05:19:02;3.70;;;0.80;;
39772;SDS011;25451;51.960;6.250;2022-12-29T05:21:28;2.47;;;0.70;;
39772;SDS011;25451;51.960;6.250;2022-12-29T05:23:53;3.20;;;0.70;;
39772;SDS011;25451;51.960;6.250;2022-12-29T05:26:18;1.47;;;0.60;;
39772;SDS011;25451;51.960;6.250;2022-12-29T05:28:44;3.73;;;0.77;;
39772;SDS011;25451;51.960;6.250;2022-12-29T05:31:09;3.07;;;0.73;;
39772;SDS011;25451;51.960;6.250;2022-12-29T05:33:34;3.17;;;0.80;;
39772;SDS011;25451;51.960;6.250;2022-12-29T05:36:03;5.33;;;1.00;;
39772;SDS011;25451;51.960;6.250;2022-12-29T05:38:30;3.20;;;0.80;;
39772;SDS011;25451;51.960;6.250;2022-12-29T05:40:55;3.03;;;0.80;;
39772;SDS011;25451;51.960;6.250;2022-12-29T05:43:20;3.20;;;0.70;;
39772;SDS011;25451;51.960;6.250;2022-12-29T05:45:48;3.43;;;0.77;;
39772;SDS011;25451;51.960;6.250;2022-12-29T05:48:14;2.70;;;0.77;;
39772;SDS011;25451;51.960;6.250;2022-12-29T05:50:39;3.70;;;0.80;;
39772;SDS011;25451;51.960;6.250;2022-12-29T05:53:05;6.20;;;0.97;;
39772;SDS011;25451;51.960;6.250;2022-12-29T05:55:30;3.80;;;1.03;;
39772;SDS011;25451;51.960;6.250;2022-12-29T05:57:56;4.73;;;1.00;;
39772;SDS011;25451;51.960;6.250;2022-12-29T06:00:21;4.53;;;0.70;;
39772;SDS011;25451;51.960;6.250;2022-12-29T06:02:46;4.47;;;0.93;;
39772;SDS011;25451;51.960;6.250;2022-12-29T06:05:12;3.60;;;0.93;;
39772;SDS011;25451;51.960;6.250;2022-12-29T06:07:37;4.67;;;0.73;;
39772;SDS011;25451;51.960;6.250;2022-12-29T06:10:03;5.70;;;0.90;;
39772;SDS011;25451;51.960;6.250;2022-12-29T06:12:30;5.75;;;1.05;;
39772;SDS011;25451;51.960;6.250;2022-12-29T06:14:55;5.07;;;1.00;;
39772;SDS011;25451;51.960;6.250;2022-12-29T06:17:20;4.03;;;0.80;;
39772;SDS011;25451;51.960;6.250;2022-12-29T06:19:45;4.37;;;0.80;;
39772;SDS011;25451;51.960;6.250;2022-12-29T06:22:11;2.23;;;0.70;;
39772;SDS011;25451;51.960;6.250;2022-12-29T06:24:37;6.20;;;0.90;;
39772;SDS011;25451;51.960;6.250;2022-12-29T06:27:02;4.93;;;0.60;;
39772;SDS011;25451;51.960;6.250;2022-12-29T06:29:28;5.63;;;0.90;;
39772;SDS011;25451;51.960;6.250;2022-12-29T06:31:53;3.65;;;0.70;;
39772;SDS011;25451;51.960;6.250;2022-12-29T06:34:22;2.95;;;0.77;;
39772;SDS011;25451;51.960;6.250;2022-12-29T06:36:48;3.88;;;0.93;;
39772;SDS011;25451;51.960;6.250;2022-12-29T06:39:13;4.10;;;0.80;;
39772;SDS011;25451;51.960;6.250;2022-12-29T06:41:39;4.10;;;1.07;;
39772;SDS011;25451;51.960;6.250;2022-12-29T06:44:04;5.33;;;1.00;;
39772;SDS011;25451;51.960;6.250;2022-12-29T06:46:29;5.07;;;0.83;;
39772;SDS011;25451;51.960;6.250;2022-12-29T06:48:55;7.10;;;0.80;;
39772;SDS011;25451;51.960;6.250;2022-12-29T06:51:20;5.22;;;0.85;;
39772;SDS011;25451;51.960;6.250;2022-12-29T06:53:45;2.95;;;0.90;;
39772;SDS011;25451;51.960;6.250;2022-12-29T06:56:11;4.13;;;0.70;;
39772;SDS011;25451;51.960;6.250;2022-12-29T06:58:36;3.83;;;0.80;;
39772;SDS011;25451;51.960;6.250;2022-12-29T07:01:01;2.23;;;0.63;;
39772;SDS011;25451;51.960;6.250;2022-12-29T07:03:26;4.47;;;0.80;;
39772;SDS011;25451;51.960;6.250;2022-12-29T07:05:52;4.00;;;0.80;;
39772;SDS011;25451;51.960;6.250;2022-12-29T07:08:17;5.03;;;0.67;;
39772;SDS011;25451;51.960;6.250;2022-12-29T07:10:42;2.20;;;0.70;;
39772;SDS011;25451;51.960;6.250;2022-12-29T07:13:08;2.53;;;0.70;;
39772;SDS011;25451;51.960;6.250;2022-12-29T07:15:33;5.10;;;0.90;;
39772;SDS011;25451;51.960;6.250;2022-12-29T07:17:59;2.92;;;0.88;;
39772;SDS011;25451;51.960;6.250;2022-12-29T07:20:24;5.23;;;0.70;;
39772;SDS011;25451;51.960;6.250;2022-12-29T07:22:50;3.07;;;0.80;;
39772;SDS011;25451;51.960;6.250;2022-12-29T07:25:15;4.60;;;0.80;;
39772;SDS011;25451;51.960;6.250;2022-12-29T07:27:40;4.40;;;0.80;;
39772;SDS011;25451;51.960;6.250;2022-12-29T07:30:06;2.60;;;0.60;;
39772;SDS011;25451;51.960;6.250;2022-12-29T07:32:32;4.90;;;0.90;;
39772;SDS011;25451;51.960;6.250;2022-12-29T07:34:58;2.30;;;0.70;;
39772;SDS011;25451;51.960;6.250;2022-12-29T07:37:24;5.57;;;0.87;;
39772;SDS011;25451;51.960;6.250;2022-12-29T07:39:49;3.13;;;0.70;;
39772;SDS011;25451;51.960;6.250;2022-12-29T07:42:14;5.73;;;0.93;;
39772;SDS011;25451;51.960;6.250;2022-12-29T07:44:39;4.97;;;0.90;;
39772;SDS011;25451;51.960;6.250;2022-12-29T07:47:05;2.80;;;0.70;;
39772;SDS011;25451;51.960;6.250;2022-12-29T07:49:30;3.30;;;0.87;;
39772;SDS011;25451;51.960;6.250;2022-12-29T07:51:55;3.80;;;0.80;;
39772;SDS011;25451;51.960;6.250;2022-12-29T07:54:20;2.30;;;0.73;;
39772;SDS011;25451;51.960;6.250;2022-12-29T07:56:47;1.75;;;0.60;;
39772;SDS011;25451;51.960;6.250;2022-12-29T07:59:12;6.10;;;0.80;;
39772;SDS011;25451;51.960;6.250;2022-12-29T08:01:38;4.90;;;1.00;;
39772;SDS011;25451;51.960;6.250;2022-12-29T08:04:04;5.33;;;0.60;;
39772;SDS011;25451;51.960;6.250;2022-12-29T08:06:29;4.90;;;1.15;;
39772;SDS011;25451;51.960;6.250;2022-12-29T08:08:55;4.60;;;1.10;;
39772;SDS011;25451;51.960;6.250;2022-12-29T08:11:21;4.28;;;0.68;;
39772;SDS011;25451;51.960;6.250;2022-12-29T08:13:47;6.50;;;1.00;;
39772;SDS011;25451;51.960;6.250;2022-12-29T08:16:12;5.95;;;0.80;;
39772;SDS011;25451;51.960;6.250;2022-12-29T08:18:37;4.43;;;0.73;;
39772;SDS011;25451;51.960;6.250;2022-12-29T08:21:03;6.47;;;0.80;;
39772;SDS011;25451;51.960;6.250;2022-12-29T08:23:29;3.03;;;0.70;;
39772;SDS011;25451;51.960;6.250;2022-12-29T08:25:59;4.33;;;0.80;;
39772;SDS011;25451;51.960;6.250;2022-12-29T08:28:25;2.13;;;0.70;;
39772;SDS011;25451;51.960;6.250;2022-12-29T08:30:51;4.72;;;0.70;;
39772;SDS011;25451;51.960;6.250;2022-12-29T08:33:17;2.13;;;0.63;;
39772;SDS011;25451;51.960;6.250;2022-12-29T08:35:42;6.20;;;1.00;;
39772;SDS011;25451;51.960;6.250;2022-12-29T08:38:08;6.30;;;0.80;;
39772;SDS011;25451;51.960;6.250;2022-12-29T08:40:33;7.40;;;0.90;;
39772;SDS011;25451;51.960;6.250;2022-12-29T08:42:58;3.53;;;0.80;;
39772;SDS011;25451;51.960;6.250;2022-12-29T08:45:23;7.87;;;0.90;;
39772;SDS011;25451;51.960;6.250;2022-12-29T08:47:49;6.10;;;1.10;;
39772;SDS011;25451;51.960;6.250;2022-12-29T08:50:14;8.53;;;0.80;;
39772;SDS011;25451;51.960;6.250;2022-12-29T08:52:39;5.80;;;0.90;;
39772;SDS011;25451;51.960;6.250;2022-12-29T08:55:05;5.85;;;1.10;;
39772;SDS011;25451;51.960;6.250;2022-12-29T08:57:30;4.07;;;0.95;;
39772;SDS011;25451;51.960;6.250;2022-12-29T08:59:55;4.93;;;0.87;;
39772;SDS011;25451;51.960;6.250;2022-12-29T09:02:21;7.53;;;0.90;;
39772;SDS011;25451;51.960;6.250;2022-12-29T09:04:46;5.10;;;0.97;;
39772;SDS011;25451;51.960;6.250;2022-12-29T09:07:11;6.33;;;1.00;;
39772;SDS011;25451;51.960;6.250;2022-12-29T09:09:36;5.83;;;0.90;;
39772;SDS011;25451;51.960;6.250;2022-12-29T09:12:02;6.83;;;1.00;;
39772;SDS011;25451;51.960;6.250;2022-12-29T09:14:27;6.57;;;0.90;;
39772;SDS011;25451;51.960;6.250;2022-12-29T09:16:53;7.07;;;0.80;;
39772;SDS011;25451;51.960;6.250;2022-12-29T09:19:37;2.72;;;0.65;;
39772;SDS011;25451;51.960;6.250;2022-12-29T09:22:03;5.13;;;0.77;;
39772;SDS011;25451;51.960;6.250;2022-12-29T09:24:28;4.60;;;1.10;;
39772;SDS011;25451;51.960;6.250;2022-12-29T09:26:53;5.68;;;0.80;;
39772;SDS011;25451;51.960;6.250;2022-12-29T09:29:19;6.43;;;0.93;;
39772;SDS011;25451;51.960;6.250;2022-12-29T09:31:44;6.67;;;0.90;;
39772;SDS011;25451;51.960;6.250;2022-12-29T09:34:09;10.87;;;1.13;;
39772;SDS011;25451;51.960;6.250;2022-12-29T09:36:34;5.70;;;0.83;;
39772;SDS011;25451;51.960;6.250;2022-12-29T09:39:00;7.67;;;1.00;;
39772;SDS011;25451;51.960;6.250;2022-12-29T09:41:29;9.07;;;1.17;;
39772;SDS011;25451;51.960;6.250;2022-12-29T09:46:48;7.65;;;1.00;;
39772;SDS011;25451;51.960;6.250;2022-12-29T09:49:21;8.30;;;0.90;;
39772;SDS011;25451;51.960;6.250;2022-12-29T09:51:57;5.53;;;1.15;;
39772;SDS011;25451;51.960;6.250;2022-12-29T09:54:33;8.25;;;1.00;;
39772;SDS011;25451;51.960;6.250;2022-12-29T09:57:04;3.22;;;0.75;;
39772;SDS011;25451;51.960;6.250;2022-12-29T09:59:40;8.73;;;1.10;;
39772;SDS011;25451;51.960;6.250;2022-12-29T10:05:02;5.78;;;1.00;;
39772;SDS011;25451;51.960;6.250;2022-12-29T10:07:43;8.15;;;1.00;;
39772;SDS011;25451;51.960;6.250;2022-12-29T10:13:34;7.85;;;1.02;;
39772;SDS011;25451;51.960;6.250;2022-12-29T10:15:53;5.35;;;0.82;;
39772;SDS011;25451;51.960;6.250;2022-12-29T10:21:23;3.28;;;0.95;;
39772;SDS011;25451;51.960;6.250;2022-12-29T10:23:54;6.53;;;0.88;;
39772;SDS011;25451;51.960;6.250;2022-12-29T10:26:22;5.68;;;0.88;;
39772;SDS011;25451;51.960;6.250;2022-12-29T10:28:52;5.25;;;0.93;;
39772;SDS011;25451;51.960;6.250;2022-12-29T10:31:23;8.27;;;0.98;;
39772;SDS011;25451;51.960;6.250;2022-12-29T10:33:55;4.93;;;0.88;;
39772;SDS011;25451;51.960;6.250;2022-12-29T10:36:27;4.40;;;0.70;;
39772;SDS011;25451;51.960;6.250;2022-12-29T10:39:02;5.78;;;0.88;;
39772;SDS011;25451;51.960;6.250;2022-12-29T10:41:38;3.22;;;1.00;;
39772;SDS011;25451;51.960;6.250;2022-12-29T10:44:09;6.95;;;0.90;;
39772;SDS011;25451;51.960;6.250;2022-12-29T10:46:39;4.18;;;0.80;;
39772;SDS011;25451;51.960;6.250;2022-12-29T10:49:06;4.75;;;1.00;;
39772;SDS011;25451;51.960;6.250;2022-12-29T10:51:37;7.32;;;0.75;;
39772;SDS011;25451;51.960;6.250;2022-12-29T10:59:25;3.97;;;0.75;;
39772;SDS011;25451;51.960;6.250;2022-12-29T11:07:22;6.37;;;1.00;;
39772;SDS011;25451;51.960;6.250;2022-12-29T11:09:48;5.70;;;0.95;;
39772;SDS011;25451;51.960;6.250;2022-12-29T11:15:11;6.95;;;1.02;;
39772;SDS011;25451;51.960;6.250;2022-12-29T11:17:49;3.25;;;1.00;;
39772;SDS011;25451;51.960;6.250;2022-12-29T11:20:24;2.53;;;0.90;;
39772;SDS011;25451;51.960;6.250;2022-12-29T11:22:56;4.15;;;0.93;;
39772;SDS011;25451;51.960;6.250;2022-12-29T11:25:22;6.50;;;1.20;;
39772;SDS011;25451;51.960;6.250;2022-12-29T11:27:58;5.88;;;1.00;;
39772;SDS011;25451;51.960;6.250;2022-12-29T11:30:28;11.10;;;1.30;;
39772;SDS011;25451;51.960;6.250;2022-12-29T11:32:55;4.28;;;1.08;;
39772;SDS011;25451;51.960;6.250;2022-12-29T11:35:32;6.60;;;1.50;;
39772;SDS011;25451;51.960;6.250;2022-12-29T11:38:06;7.32;;;1.00;;
39772;SDS011;25451;51.960;6.250;2022-12-29T11:40:44;3.88;;;1.10;;
39772;SDS011;25451;51.960;6.250;2022-12-29T11:43:16;5.73;;;1.43;;
39772;SDS011;25451;51.960;6.250;2022-12-29T11:45:49;6.28;;;1.33;;
39772;SDS011;25451;51.960;6.250;2022-12-29T11:48:19;9.75;;;1.48;;
39772;SDS011;25451;51.960;6.250;2022-12-29T11:50:52;8.43;;;1.55;;
39772;SDS011;25451;51.960;6.250;2022-12-29T11:53:21;7.05;;;1.40;;
39772;SDS011;25451;51.960;6.250;2022-12-29T11:58:28;7.82;;;1.52;;
39772;SDS011;25451;51.960;6.250;2022-12-29T12:01:40;4.10;;;1.40;;
39772;SDS011;25451;51.960;6.250;2022-12-29T12:04:11;4.88;;;1.55;;
39772;SDS011;25451;51.960;6.250;2022-12-29T12:07:00;6.00;;;1.25;;
39772;SDS011;25451;51.960;6.250;2022-12-29T12:09:29;3.38;;;1.17;;
39772;SDS011;25451;51.960;6.250;2022-12-29T12:11:59;6.15;;;1.40;;
39772;SDS011;25451;51.960;6.250;2022-12-29T12:14:34;12.00;;;1.80;;
39772;SDS011;25451;51.960;6.250;2022-12-29T12:17:09;5.75;;;1.40;;
39772;SDS011;25451;51.960;6.250;2022-12-29T12:19:41;5.97;;;1.20;;
39772;SDS011;25451;51.960;6.250;2022-12-29T12:22:28;8.15;;;1.30;;
39772;SDS011;25451;51.960;6.250;2022-12-29T12:25:03;5.47;;;1.30;;
39772;SDS011;25451;51.960;6.250;2022-12-29T12:27:37;7.70;;;1.70;;
39772;SDS011;25451;51.960;6.250;2022-12-29T12:30:13;8.73;;;1.50;;
39772;SDS011;25451;51.960;6.250;2022-12-29T12:32:55;6.47;;;1.35;;
39772;SDS011;25451;51.960;6.250;2022-12-29T12:35:41;6.50;;;1.50;;
39772;SDS011;25451;51.960;6.250;2022-12-29T12:41:14;5.47;;;1.55;;
39772;SDS011;25451;51.960;6.250;2022-12-29T12:44:00;8.80;;;1.60;;
39772;SDS011;25451;51.960;6.250;2022-12-29T12:46:58;8.45;;;1.77;;
39772;SDS011;25451;51.960;6.250;2022-12-29T12:53:18;14.48;;;1.95;;
39772;SDS011;25451;51.960;6.250;2022-12-29T12:58:51;5.32;;;1.67;;
39772;SDS011;25451;51.960;6.250;2022-12-29T13:06:51;7.30;;;1.67;;
39772;SDS011;25451;51.960;6.250;2022-12-29T13:12:46;8.75;;;1.67;;
39772;SDS011;25451;51.960;6.250;2022-12-29T13:37:04;6.22;;;1.60;;
39772;SDS011;25451;51.960;6.250;2022-12-29T13:42:13;7.10;;;1.50;;
39772;SDS011;25451;51.960;6.250;2022-12-29T13:47:22;8.35;;;1.60;;
39772;SDS011;25451;51.960;6.250;2022-12-29T13:49:52;7.38;;;1.60;;
39772;SDS011;25451;51.960;6.250;2022-12-29T13:52:25;8.82;;;1.42;;
39772;SDS011;25451;51.960;6.250;2022-12-29T13:58:03;7.10;;;1.30;;
39772;SDS011;25451;51.960;6.250;2022-12-29T14:00:46;8.18;;;1.50;;
39772;SDS011;25451;51.960;6.250;2022-12-29T14:06:27;6.40;;;1.30;;
39772;SDS011;25451;51.960;6.250;2022-12-29T14:08:57;7.60;;;1.40;;
39772;SDS011;25451;51.960;6.250;2022-12-29T14:11:35;10.05;;;1.80;;
39772;SDS011;25451;51.960;6.250;2022-12-29T14:14:12;5.65;;;1.40;;
39772;SDS011;25451;51.960;6.250;2022-12-29T14:16:43;6.18;;;1.60;;
39772;SDS011;25451;51.960;6.250;2022-12-29T14:19:12;5.28;;;1.38;;
39772;SDS011;25451;51.960;6.250;2022-12-29T14:21:41;6.75;;;1.50;;
39772;SDS011;25451;51.960;6.250;2022-12-29T14:24:59;7.32;;;1.63;;
39772;SDS011;25451;51.960;6.250;2022-12-29T14:34:57;4.57;;;1.20;;
39772;SDS011;25451;51.960;6.250;2022-12-29T14:42:32;3.97;;;0.95;;
39772;SDS011;25451;51.960;6.250;2022-12-29T14:47:47;4.45;;;1.00;;
39772;SDS011;25451;51.960;6.250;2022-12-29T14:50:16;7.38;;;1.20;;
39772;SDS011;25451;51.960;6.250;2022-12-29T14:52:47;4.13;;;0.95;;
39772;SDS011;25451;51.960;6.250;2022-12-29T14:57:49;5.03;;;1.20;;
39772;SDS011;25451;51.960;6.250;2022-12-29T15:00:21;4.88;;;1.02;;
39772;SDS011;25451;51.960;6.250;2022-12-29T15:03:02;5.43;;;1.25;;
39772;SDS011;25451;51.960;6.250;2022-12-29T15:08:36;4.65;;;0.93;;
39772;SDS011;25451;51.960;6.250;2022-12-29T15:11:06;3.50;;;1.08;;
39772;SDS011;25451;51.960;6.250;2022-12-29T15:13:41;3.33;;;0.98;;
39772;SDS011;25451;51.960;6.250;2022-12-29T15:18:54;3.92;;;1.10;;
39772;SDS011;25451;51.960;6.250;2022-12-29T15:21:22;4.10;;;1.10;;
39772;SDS011;25451;51.960;6.250;2022-12-29T15:23:50;4.53;;;1.38;;
39772;SDS011;25451;51.960;6.250;2022-12-29T15:26:15;4.23;;;1.03;;
39772;SDS011;25451;51.960;6.250;2022-12-29T15:28:47;7.93;;;1.30;;
39772;SDS011;25451;51.960;6.250;2022-12-29T15:31:14;3.67;;;1.08;;
39772;SDS011;25451;51.960;6.250;2022-12-29T15:33:52;6.07;;;0.98;;
39772;SDS011;25451;51.960;6.250;2022-12-29T15:38:54;8.30;;;1.40;;
39772;SDS011;25451;51.960;6.250;2022-12-29T15:41:32;7.47;;;1.25;;
39772;SDS011;25451;51.960;6.250;2022-12-29T15:44:34;5.43;;;1.30;;
39772;SDS011;25451;51.960;6.250;2022-12-29T15:47:05;4.85;;;1.10;;
39772;SDS011;25451;51.960;6.250;2022-12-29T15:49:36;6.60;;;1.10;;
39772;SDS011;25451;51.960;6.250;2022-12-29T15:52:06;5.80;;;1.25;;
39772;SDS011;25451;51.960;6.250;2022-12-29T15:54:33;6.80;;;1.20;;
39772;SDS011;25451;51.960;6.250;2022-12-29T15:56:59;5.53;;;1.30;;
39772;SDS011;25451;51.960;6.250;2022-12-29T15:59:28;6.23;;;1.60;;
39772;SDS011;25451;51.960;6.250;2022-12-29T16:01:55;6.45;;;1.10;;
39772;SDS011;25451;51.960;6.250;2022-12-29T16:04:22;7.50;;;1.40;;
39772;SDS011;25451;51.960;6.250;2022-12-29T16:06:54;4.50;;;1.30;;
39772;SDS011;25451;51.960;6.250;2022-12-29T16:12:16;5.90;;;1.50;;
39772;SDS011;25451;51.960;6.250;2022-12-29T16:14:46;7.63;;;1.25;;
39772;SDS011;25451;51.960;6.250;2022-12-29T16:17:15;6.45;;;1.77;;
39772;SDS011;25451;51.960;6.250;2022-12-29T16:19:47;6.05;;;1.20;;
39772;SDS011;25451;51.960;6.250;2022-12-29T16:22:38;3.00;;;1.15;;
39772;SDS011;25451;51.960;6.250;2022-12-29T16:25:06;5.90;;;1.45;;
39772;SDS011;25451;51.960;6.250;2022-12-29T16:27:41;8.45;;;1.52;;
39772;SDS011;25451;51.960;6.250;2022-12-29T16:30:19;4.60;;;1.40;;
39772;SDS011;25451;51.960;6.250;2022-12-29T16:32:50;6.28;;;1.10;;
39772;SDS011;25451;51.960;6.250;2022-12-29T16:37:47;5.95;;;1.05;;
39772;SDS011;25451;51.960;6.250;2022-12-29T16:40:30;4.35;;;1.00;;
39772;SDS011;25451;51.960;6.250;2022-12-29T16:43:00;5.97;;;1.30;;
39772;SDS011;25451;51.960;6.250;2022-12-29T16:48:17;5.57;;;1.00;;
39772;SDS011;25451;51.960;6.250;2022-12-29T16:50:45;4.45;;;1.00;;
39772;SDS011;25451;51.960;6.250;2022-12-29T16:55:53;3.33;;;0.80;;
39772;SDS011;25451;51.960;6.250;2022-12-29T16:58:29;3.75;;;0.93;;
39772;SDS011;25451;51.960;6.250;2022-12-29T17:00:56;2.92;;;0.90;;
39772;SDS011;25451;51.960;6.250;2022-12-29T17:03:39;3.63;;;0.80;;
39772;SDS011;25451;51.960;6.250;2022-12-29T17:06:12;5.22;;;1.25;;
39772;SDS011;25451;51.960;6.250;2022-12-29T17:08:40;6.93;;;0.97;;
39772;SDS011;25451;51.960;6.250;2022-12-29T17:11:13;4.50;;;0.98;;
39772;SDS011;25451;51.960;6.250;2022-12-29T17:14:04;2.95;;;0.82;;
39772;SDS011;25451;51.960;6.250;2022-12-29T17:16:30;2.80;;;0.77;;
39772;SDS011;25451;51.960;6.250;2022-12-29T17:18:55;5.67;;;0.90;;
39772;SDS011;25451;51.960;6.250;2022-12-29T17:21:21;1.90;;;0.70;;
39772;SDS011;25451;51.960;6.250;2022-12-29T17:23:46;2.33;;;0.77;;
39772;SDS011;25451;51.960;6.250;2022-12-29T17:26:11;4.00;;;1.00;;
39772;SDS011;25451;51.960;6.250;2022-12-29T17:28:37;2.10;;;0.73;;
39772;SDS011;25451;51.960;6.250;2022-12-29T17:31:03;2.92;;;0.82;;